sensor_id;sensor_type;location;lat;lon;timestamp;temperature;humidity
9383;DHT22;4731;49.708;10.816;2023-03-04T00:00:11;-0.90;99.90
9383;DHT22;4731;49.708;10.816;2023-03-04T00:02:38;-1.00;99.90
9383;DHT22;4731;49.708;10.816;2023-03-04T00:05:06;-1.00;99.90
9383;DHT22;4731;49.708;10.816;2023-03-04T00:07:34;-1.00;99.90
9383;DHT22;4731;49.708;10.816;2023-03-04T00:10:00;-1.00;99.90
9383;DHT22;4731;49.708;10.816;2023-03-04T00:12:27;-1.00;99.90
9383;DHT22;4731;49.708;10.816;2023-03-04T00:14:55;-1.10;99.90
9383;DHT22;4731;49.708;10.816;2023-03-04T00:17:22;-1.10;99.90
9383;DHT22;4731;49.708;10.816;2023-03-04T00:19:49;-1.20;99.90
9383;DHT22;4731;49.708;10.816;2023-03-04T00:22:17;-1.20;99.90
9383;DHT22;4731;49.708;10.816;2023-03-04T00:24:44;-1.20;99.90
9383;DHT22;4731;49.708;10.816;2023-03-04T00:27:10;-1.10;99.90
9383;DHT22;4731;49.708;10.816;2023-03-04T00:29:37;-1.10;99.90
9383;DHT22;4731;49.708;10.816;2023-03-04T00:32:05;-1.10;99.90
9383;DHT22;4731;49.708;10.816;2023-03-04T00:34:32;-1.10;99.90
9383;DHT22;4731;49.708;10.816;2023-03-04T00:36:59;-1.20;99.90
9383;DHT22;4731;49.708;10.816;2023-03-04T00:39:28;-1.40;99.90
9383;DHT22;4731;49.708;10.816;2023-03-04T00:41:54;-1.50;99.90
9383;DHT22;4731;49.708;10.816;2023-03-04T00:44:21;-1.60;99.90
9383;DHT22;4731;49.708;10.816;2023-03-04T00:46:48;-1.70;99.90
9383;DHT22;4731;49.708;10.816;2023-03-04T00:49:16;-1.80;99.90
9383;DHT22;4731;49.708;10.816;2023-03-04T00:51:43;-1.80;99.90
9383;DHT22;4731;49.708;10.816;2023-03-04T00:54:09;-1.90;99.90
9383;DHT22;4731;49.708;10.816;2023-03-04T00:56:36;-2.00;99.90
9383;DHT22;4731;49.708;10.816;2023-03-04T00:59:03;-2.10;99.90
9383;DHT22;4731;49.708;10.816;2023-03-04T01:01:30;-2.10;99.90
9383;DHT22;4731;49.708;10.816;2023-03-04T01:03:56;-0.50;99.90
9383;DHT22;4731;49.708;10.816;2023-03-04T01:06:25;-2.10;99.90
9383;DHT22;4731;49.708;10.816;2023-03-04T01:08:51;-2.10;99.90
9383;DHT22;4731;49.708;10.816;2023-03-04T01:11:18;-2.10;99.90
9383;DHT22;4731;49.708;10.816;2023-03-04T01:13:45;-2.10;99.90
9383;DHT22;4731;49.708;10.816;2023-03-04T01:16:11;-2.10;99.90
9383;DHT22;4731;49.708;10.816;2023-03-04T01:18:38;-2.10;99.90
9383;DHT22;4731;49.708;10.816;2023-03-04T01:21:05;-2.20;99.90
9383;DHT22;4731;49.708;10.816;2023-03-04T01:23:33;-2.20;99.90
9383;DHT22;4731;49.708;10.816;2023-03-04T01:26:00;-2.20;99.90
9383;DHT22;4731;49.708;10.816;2023-03-04T01:28:27;-2.20;99.90
9383;DHT22;4731;49.708;10.816;2023-03-04T01:30:54;-2.30;99.90
9383;DHT22;4731;49.708;10.816;2023-03-04T01:33:22;-2.30;99.90
9383;DHT22;4731;49.708;10.816;2023-03-04T01:35:48;-2.30;99.90
9383;DHT22;4731;49.708;10.816;2023-03-04T01:38:15;-2.30;99.90
9383;DHT22;4731;49.708;10.816;2023-03-04T01:40:43;-2.20;99.90
9383;DHT22;4731;49.708;10.816;2023-03-04T01:43:15;-2.30;99.90
9383;DHT22;4731;49.708;10.816;2023-03-04T01:45:44;-2.30;99.90
9383;DHT22;4731;49.708;10.816;2023-03-04T01:48:13;-2.40;99.90
9383;DHT22;4731;49.708;10.816;2023-03-04T01:50:42;-2.50;99.90
9383;DHT22;4731;49.708;10.816;2023-03-04T01:53:16;-2.50;99.90
9383;DHT22;4731;49.708;10.816;2023-03-04T01:55:44;-2.50;99.90
9383;DHT22;4731;49.708;10.816;2023-03-04T01:58:12;-2.60;99.90
9383;DHT22;4731;49.708;10.816;2023-03-04T02:00:39;-2.60;99.90
9383;DHT22;4731;49.708;10.816;2023-03-04T02:03:08;-2.60;99.90
9383;DHT22;4731;49.708;10.816;2023-03-04T02:05:38;-2.60;99.90
9383;DHT22;4731;49.708;10.816;2023-03-04T02:08:06;-2.50;99.90
9383;DHT22;4731;49.708;10.816;2023-03-04T02:10:33;-2.40;99.90
9383;DHT22;4731;49.708;10.816;2023-03-04T02:13:02;-2.30;99.90
9383;DHT22;4731;49.708;10.816;2023-03-04T02:15:29;-0.50;99.90
9383;DHT22;4731;49.708;10.816;2023-03-04T02:17:56;2.00;99.90
9383;DHT22;4731;49.708;10.816;2023-03-04T02:20:34;-1.90;99.90
9383;DHT22;4731;49.708;10.816;2023-03-04T02:23:11;-1.80;99.90
9383;DHT22;4731;49.708;10.816;2023-03-04T02:25:44;-1.70;99.90
9383;DHT22;4731;49.708;10.816;2023-03-04T02:28:13;-1.60;99.90
9383;DHT22;4731;49.708;10.816;2023-03-04T02:30:40;-1.60;99.90
9383;DHT22;4731;49.708;10.816;2023-03-04T02:33:13;-1.50;99.90
9383;DHT22;4731;49.708;10.816;2023-03-04T02:35:41;-1.40;99.90
9383;DHT22;4731;49.708;10.816;2023-03-04T02:38:09;-1.50;99.90
9383;DHT22;4731;49.708;10.816;2023-03-04T02:40:36;0.80;99.90
9383;DHT22;4731;49.708;10.816;2023-03-04T02:43:03;-1.40;99.90
9383;DHT22;4731;49.708;10.816;2023-03-04T02:45:41;-1.40;99.90
9383;DHT22;4731;49.708;10.816;2023-03-04T02:48:08;-1.40;99.90
9383;DHT22;4731;49.708;10.816;2023-03-04T02:50:39;-1.30;99.90
9383;DHT22;4731;49.708;10.816;2023-03-04T02:53:07;-1.30;99.90
9383;DHT22;4731;49.708;10.816;2023-03-04T02:55:34;-1.30;99.90
9383;DHT22;4731;49.708;10.816;2023-03-04T02:58:01;-1.20;99.90
9383;DHT22;4731;49.708;10.816;2023-03-04T03:00:28;-1.30;99.90
9383;DHT22;4731;49.708;10.816;2023-03-04T03:02:57;-1.30;99.90
9383;DHT22;4731;49.708;10.816;2023-03-04T03:05:25;-1.30;99.90
9383;DHT22;4731;49.708;10.816;2023-03-04T03:07:52;-1.20;99.90
9383;DHT22;4731;49.708;10.816;2023-03-04T03:10:19;-1.20;99.90
9383;DHT22;4731;49.708;10.816;2023-03-04T03:12:45;-1.20;99.90
9383;DHT22;4731;49.708;10.816;2023-03-04T03:15:13;-1.20;99.90
9383;DHT22;4731;49.708;10.816;2023-03-04T03:17:39;-0.30;99.90
9383;DHT22;4731;49.708;10.816;2023-03-04T03:20:10;-1.10;99.90
9383;DHT22;4731;49.708;10.816;2023-03-04T03:22:38;-1.10;99.90
9383;DHT22;4731;49.708;10.816;2023-03-04T03:25:05;-1.10;99.90
9383;DHT22;4731;49.708;10.816;2023-03-04T03:27:32;-1.00;99.90
9383;DHT22;4731;49.708;10.816;2023-03-04T03:29:59;-1.10;99.90
9383;DHT22;4731;49.708;10.816;2023-03-04T03:32:26;-1.10;99.90
9383;DHT22;4731;49.708;10.816;2023-03-04T03:34:52;-1.10;99.90
9383;DHT22;4731;49.708;10.816;2023-03-04T03:37:21;-1.20;99.90
9383;DHT22;4731;49.708;10.816;2023-03-04T03:39:47;-1.10;99.90
9383;DHT22;4731;49.708;10.816;2023-03-04T03:42:14;-1.10;99.90
9383;DHT22;4731;49.708;10.816;2023-03-04T03:44:41;-1.00;99.90
9383;DHT22;4731;49.708;10.816;2023-03-04T03:47:08;-1.00;99.90
9383;DHT22;4731;49.708;10.816;2023-03-04T03:49:34;-1.00;99.90
9383;DHT22;4731;49.708;10.816;2023-03-04T03:52:01;-0.90;99.90
9383;DHT22;4731;49.708;10.816;2023-03-04T03:54:29;-0.90;99.90
9383;DHT22;4731;49.708;10.816;2023-03-04T03:56:56;-0.80;99.90
9383;DHT22;4731;49.708;10.816;2023-03-04T03:59:22;-0.80;99.90
9383;DHT22;4731;49.708;10.816;2023-03-04T04:01:49;-0.80;99.90
9383;DHT22;4731;49.708;10.816;2023-03-04T04:04:16;-0.90;99.90
9383;DHT22;4731;49.708;10.816;2023-03-04T04:06:43;-0.70;99.90
9383;DHT22;4731;49.708;10.816;2023-03-04T04:09:10;-0.60;99.90
9383;DHT22;4731;49.708;10.816;2023-03-04T04:11:38;-0.60;99.90
9383;DHT22;4731;49.708;10.816;2023-03-04T04:14:04;-0.50;99.90
9383;DHT22;4731;49.708;10.816;2023-03-04T04:16:31;-0.70;99.90
9383;DHT22;4731;49.708;10.816;2023-03-04T04:18:58;-0.70;99.90
9383;DHT22;4731;49.708;10.816;2023-03-04T04:21:25;-0.70;99.90
9383;DHT22;4731;49.708;10.816;2023-03-04T04:23:52;-0.50;99.90
9383;DHT22;4731;49.708;10.816;2023-03-04T04:26:18;-0.40;99.90
9383;DHT22;4731;49.708;10.816;2023-03-04T04:28:47;-0.40;99.90
9383;DHT22;4731;49.708;10.816;2023-03-04T04:31:14;-0.30;99.90
9383;DHT22;4731;49.708;10.816;2023-03-04T04:33:40;-0.30;99.90
9383;DHT22;4731;49.708;10.816;2023-03-04T04:36:09;-0.40;99.90
9383;DHT22;4731;49.708;10.816;2023-03-04T04:38:38;1.60;99.90
9383;DHT22;4731;49.708;10.816;2023-03-04T04:41:04;-0.40;99.90
9383;DHT22;4731;49.708;10.816;2023-03-04T04:43:31;-0.50;99.90
9383;DHT22;4731;49.708;10.816;2023-03-04T04:45:59;-0.50;99.90
9383;DHT22;4731;49.708;10.816;2023-03-04T04:48:27;-0.40;99.90
9383;DHT22;4731;49.708;10.816;2023-03-04T04:50:54;-0.30;99.90
9383;DHT22;4731;49.708;10.816;2023-03-04T04:53:21;-0.40;99.90
9383;DHT22;4731;49.708;10.816;2023-03-04T04:55:48;-0.30;99.90
9383;DHT22;4731;49.708;10.816;2023-03-04T04:58:14;-0.40;99.90
9383;DHT22;4731;49.708;10.816;2023-03-04T05:00:41;-0.30;99.90
9383;DHT22;4731;49.708;10.816;2023-03-04T05:03:09;1.90;99.90
9383;DHT22;4731;49.708;10.816;2023-03-04T05:05:36;-0.40;99.90
9383;DHT22;4731;49.708;10.816;2023-03-04T05:08:03;-0.40;99.90
9383;DHT22;4731;49.708;10.816;2023-03-04T05:10:30;-0.40;99.90
9383;DHT22;4731;49.708;10.816;2023-03-04T05:12:57;-0.50;99.90
9383;DHT22;4731;49.708;10.816;2023-03-04T05:15:24;-0.50;99.90
9383;DHT22;4731;49.708;10.816;2023-03-04T05:17:50;-0.40;99.90
9383;DHT22;4731;49.708;10.816;2023-03-04T05:20:19;-0.40;99.90
9383;DHT22;4731;49.708;10.816;2023-03-04T05:22:48;-0.40;99.90
9383;DHT22;4731;49.708;10.816;2023-03-04T05:25:14;-0.60;99.90
9383;DHT22;4731;49.708;10.816;2023-03-04T05:27:41;-0.40;99.90
9383;DHT22;4731;49.708;10.816;2023-03-04T05:30:09;-0.30;99.90
9383;DHT22;4731;49.708;10.816;2023-03-04T05:32:36;-0.30;99.90
9383;DHT22;4731;49.708;10.816;2023-03-04T05:35:04;-0.40;99.90
9383;DHT22;4731;49.708;10.816;2023-03-04T05:37:32;-0.30;99.90
9383;DHT22;4731;49.708;10.816;2023-03-04T05:39:59;-0.30;99.90
9383;DHT22;4731;49.708;10.816;2023-03-04T05:42:26;-0.30;99.90
9383;DHT22;4731;49.708;10.816;2023-03-04T05:44:53;-0.40;99.90
9383;DHT22;4731;49.708;10.816;2023-03-04T05:47:19;-0.50;99.90
9383;DHT22;4731;49.708;10.816;2023-03-04T05:49:46;-0.40;99.90
9383;DHT22;4731;49.708;10.816;2023-03-04T05:52:13;-0.30;99.90
9383;DHT22;4731;49.708;10.816;2023-03-04T05:54:41;-0.40;99.90
9383;DHT22;4731;49.708;10.816;2023-03-04T05:57:07;-0.30;99.90
9383;DHT22;4731;49.708;10.816;2023-03-04T05:59:34;-0.30;99.90
9383;DHT22;4731;49.708;10.816;2023-03-04T06:02:01;-0.20;99.90
9383;DHT22;4731;49.708;10.816;2023-03-04T06:04:28;-0.30;99.90
9383;DHT22;4731;49.708;10.816;2023-03-04T06:06:54;-0.30;99.90
9383;DHT22;4731;49.708;10.816;2023-03-04T06:09:21;-0.30;99.90
9383;DHT22;4731;49.708;10.816;2023-03-04T06:11:49;-0.40;99.90
9383;DHT22;4731;49.708;10.816;2023-03-04T06:14:16;-0.40;99.90
9383;DHT22;4731;49.708;10.816;2023-03-04T06:16:43;-0.60;99.90
9383;DHT22;4731;49.708;10.816;2023-03-04T06:19:09;-0.50;99.90
9383;DHT22;4731;49.708;10.816;2023-03-04T06:21:36;-0.50;99.90
9383;DHT22;4731;49.708;10.816;2023-03-04T06:24:04;0.00;99.90
9383;DHT22;4731;49.708;10.816;2023-03-04T06:26:31;-0.50;99.90
9383;DHT22;4731;49.708;10.816;2023-03-04T06:28:59;-0.50;99.90
9383;DHT22;4731;49.708;10.816;2023-03-04T06:31:26;-0.40;99.90
9383;DHT22;4731;49.708;10.816;2023-03-04T06:33:53;1.30;99.90
9383;DHT22;4731;49.708;10.816;2023-03-04T06:36:20;-0.30;99.90
9383;DHT22;4731;49.708;10.816;2023-03-04T06:38:47;-0.30;99.90
9383;DHT22;4731;49.708;10.816;2023-03-04T06:41:14;-0.30;99.90
9383;DHT22;4731;49.708;10.816;2023-03-04T06:43:40;-0.30;99.90
9383;DHT22;4731;49.708;10.816;2023-03-04T06:46:09;-0.20;99.90
9383;DHT22;4731;49.708;10.816;2023-03-04T06:48:36;-0.10;99.90
9383;DHT22;4731;49.708;10.816;2023-03-04T06:51:06;-0.10;99.90
9383;DHT22;4731;49.708;10.816;2023-03-04T06:53:33;-0.10;99.90
9383;DHT22;4731;49.708;10.816;2023-03-04T06:56:01;0.00;99.90
9383;DHT22;4731;49.708;10.816;2023-03-04T06:58:27;-0.10;99.90
9383;DHT22;4731;49.708;10.816;2023-03-04T07:00:54;-0.10;99.90
9383;DHT22;4731;49.708;10.816;2023-03-04T07:03:22;0.00;99.90
9383;DHT22;4731;49.708;10.816;2023-03-04T07:05:49;0.00;99.90
9383;DHT22;4731;49.708;10.816;2023-03-04T07:08:16;0.00;99.90
9383;DHT22;4731;49.708;10.816;2023-03-04T07:10:42;0.10;99.90
9383;DHT22;4731;49.708;10.816;2023-03-04T07:13:09;0.10;99.90
9383;DHT22;4731;49.708;10.816;2023-03-04T07:15:36;0.20;99.90
9383;DHT22;4731;49.708;10.816;2023-03-04T07:18:03;0.30;99.90
9383;DHT22;4731;49.708;10.816;2023-03-04T07:20:31;0.40;99.90
9383;DHT22;4731;49.708;10.816;2023-03-04T07:22:58;0.60;99.90
9383;DHT22;4731;49.708;10.816;2023-03-04T07:25:25;0.50;99.90
9383;DHT22;4731;49.708;10.816;2023-03-04T07:27:52;0.70;99.90
9383;DHT22;4731;49.708;10.816;2023-03-04T07:30:20;0.70;99.90
9383;DHT22;4731;49.708;10.816;2023-03-04T07:32:48;0.70;99.90
9383;DHT22;4731;49.708;10.816;2023-03-04T07:35:15;0.60;99.90
9383;DHT22;4731;49.708;10.816;2023-03-04T07:37:43;0.70;99.90
9383;DHT22;4731;49.708;10.816;2023-03-04T07:40:11;0.70;99.90
9383;DHT22;4731;49.708;10.816;2023-03-04T07:42:38;0.80;99.90
9383;DHT22;4731;49.708;10.816;2023-03-04T07:45:05;0.80;99.90
9383;DHT22;4731;49.708;10.816;2023-03-04T07:47:33;0.80;99.90
9383;DHT22;4731;49.708;10.816;2023-03-04T07:49:59;0.90;99.90
9383;DHT22;4731;49.708;10.816;2023-03-04T07:52:26;1.60;99.90
9383;DHT22;4731;49.708;10.816;2023-03-04T07:54:55;0.90;99.90
9383;DHT22;4731;49.708;10.816;2023-03-04T07:57:21;0.90;99.90
9383;DHT22;4731;49.708;10.816;2023-03-04T07:59:48;0.90;99.90
9383;DHT22;4731;49.708;10.816;2023-03-04T08:02:15;0.80;99.90
9383;DHT22;4731;49.708;10.816;2023-03-04T08:04:42;0.80;99.90
9383;DHT22;4731;49.708;10.816;2023-03-04T08:07:08;0.80;99.90
9383;DHT22;4731;49.708;10.816;2023-03-04T08:09:35;1.00;99.90
9383;DHT22;4731;49.708;10.816;2023-03-04T08:12:03;1.00;99.90
9383;DHT22;4731;49.708;10.816;2023-03-04T08:14:30;1.00;99.90
9383;DHT22;4731;49.708;10.816;2023-03-04T08:16:58;1.10;99.90
9383;DHT22;4731;49.708;10.816;2023-03-04T08:19:25;1.00;99.90
9383;DHT22;4731;49.708;10.816;2023-03-04T08:21:51;1.10;99.90
9383;DHT22;4731;49.708;10.816;2023-03-04T08:24:18;1.20;99.90
9383;DHT22;4731;49.708;10.816;2023-03-04T08:26:47;1.20;99.90
9383;DHT22;4731;49.708;10.816;2023-03-04T08:29:18;1.30;99.90
9383;DHT22;4731;49.708;10.816;2023-03-04T08:31:45;2.20;99.90
9383;DHT22;4731;49.708;10.816;2023-03-04T08:34:13;1.20;99.90
9383;DHT22;4731;49.708;10.816;2023-03-04T08:36:40;1.20;99.90
9383;DHT22;4731;49.708;10.816;2023-03-04T08:39:08;1.20;99.90
9383;DHT22;4731;49.708;10.816;2023-03-04T08:41:37;1.20;99.90
9383;DHT22;4731;49.708;10.816;2023-03-04T08:44:04;1.30;99.90
9383;DHT22;4731;49.708;10.816;2023-03-04T08:46:33;1.40;99.90
9383;DHT22;4731;49.708;10.816;2023-03-04T08:49:00;1.40;99.90
9383;DHT22;4731;49.708;10.816;2023-03-04T08:51:27;1.50;99.90
9383;DHT22;4731;49.708;10.816;2023-03-04T08:53:54;1.60;99.90
9383;DHT22;4731;49.708;10.816;2023-03-04T08:56:21;1.60;99.90
9383;DHT22;4731;49.708;10.816;2023-03-04T08:58:47;1.60;99.90
9383;DHT22;4731;49.708;10.816;2023-03-04T09:01:15;1.70;99.90
9383;DHT22;4731;49.708;10.816;2023-03-04T09:03:43;1.80;99.90
9383;DHT22;4731;49.708;10.816;2023-03-04T09:06:13;1.90;99.90
9383;DHT22;4731;49.708;10.816;2023-03-04T09:08:41;2.00;99.90
9383;DHT22;4731;49.708;10.816;2023-03-04T09:11:08;2.10;99.90
9383;DHT22;4731;49.708;10.816;2023-03-04T09:13:35;2.00;99.90
9383;DHT22;4731;49.708;10.816;2023-03-04T09:16:07;2.00;99.90
9383;DHT22;4731;49.708;10.816;2023-03-04T09:18:34;2.10;99.90
9383;DHT22;4731;49.708;10.816;2023-03-04T09:21:02;2.10;99.90
9383;DHT22;4731;49.708;10.816;2023-03-04T09:23:29;2.20;99.90
9383;DHT22;4731;49.708;10.816;2023-03-04T09:25:55;2.80;99.90
9383;DHT22;4731;49.708;10.816;2023-03-04T09:28:22;2.20;99.90
9383;DHT22;4731;49.708;10.816;2023-03-04T09:30:49;2.30;99.90
9383;DHT22;4731;49.708;10.816;2023-03-04T09:33:15;2.30;99.90
9383;DHT22;4731;49.708;10.816;2023-03-04T09:35:43;2.40;99.90
9383;DHT22;4731;49.708;10.816;2023-03-04T09:38:11;2.60;99.90
9383;DHT22;4731;49.708;10.816;2023-03-04T09:40:40;2.60;99.90
9383;DHT22;4731;49.708;10.816;2023-03-04T09:43:14;2.70;99.90
9383;DHT22;4731;49.708;10.816;2023-03-04T09:45:47;2.50;99.90
9383;DHT22;4731;49.708;10.816;2023-03-04T09:48:16;2.50;99.90
9383;DHT22;4731;49.708;10.816;2023-03-04T09:50:53;2.70;99.90
9383;DHT22;4731;49.708;10.816;2023-03-04T09:53:33;2.60;99.90
9383;DHT22;4731;49.708;10.816;2023-03-04T09:56:05;2.70;99.90
9383;DHT22;4731;49.708;10.816;2023-03-04T09:58:43;2.70;99.90
9383;DHT22;4731;49.708;10.816;2023-03-04T10:01:19;2.80;99.90
9383;DHT22;4731;49.708;10.816;2023-03-04T10:03:50;2.70;99.90
9383;DHT22;4731;49.708;10.816;2023-03-04T10:06:20;2.80;99.90
9383;DHT22;4731;49.708;10.816;2023-03-04T10:08:53;2.80;99.90
9383;DHT22;4731;49.708;10.816;2023-03-04T10:11:24;2.80;99.90
9383;DHT22;4731;49.708;10.816;2023-03-04T10:13:56;3.00;99.90
9383;DHT22;4731;49.708;10.816;2023-03-04T10:16:30;3.00;99.90
9383;DHT22;4731;49.708;10.816;2023-03-04T10:19:02;5.20;99.90
9383;DHT22;4731;49.708;10.816;2023-03-04T10:21:39;3.10;99.90
9383;DHT22;4731;49.708;10.816;2023-03-04T10:24:11;3.10;99.90
9383;DHT22;4731;49.708;10.816;2023-03-04T10:26:41;3.00;99.90
9383;DHT22;4731;49.708;10.816;2023-03-04T10:29:13;3.00;99.90
9383;DHT22;4731;49.708;10.816;2023-03-04T10:31:41;3.10;99.90
9383;DHT22;4731;49.708;10.816;2023-03-04T10:34:10;3.20;99.90
9383;DHT22;4731;49.708;10.816;2023-03-04T10:36:49;3.20;99.90
9383;DHT22;4731;49.708;10.816;2023-03-04T10:39:21;3.30;99.90
9383;DHT22;4731;49.708;10.816;2023-03-04T10:41:56;3.40;99.90
9383;DHT22;4731;49.708;10.816;2023-03-04T10:44:23;3.50;99.90
9383;DHT22;4731;49.708;10.816;2023-03-04T10:46:52;3.50;99.90
9383;DHT22;4731;49.708;10.816;2023-03-04T10:49:20;3.50;99.90
9383;DHT22;4731;49.708;10.816;2023-03-04T10:51:51;3.60;99.90
9383;DHT22;4731;49.708;10.816;2023-03-04T10:54:38;3.70;99.90
9383;DHT22;4731;49.708;10.816;2023-03-04T10:57:14;3.60;99.90
9383;DHT22;4731;49.708;10.816;2023-03-04T10:59:44;3.60;99.90
9383;DHT22;4731;49.708;10.816;2023-03-04T11:02:19;3.50;99.90
9383;DHT22;4731;49.708;10.816;2023-03-04T11:05:05;3.70;99.90
9383;DHT22;4731;49.708;10.816;2023-03-04T11:07:38;3.60;99.90
9383;DHT22;4731;49.708;10.816;2023-03-04T11:10:15;3.50;99.90
9383;DHT22;4731;49.708;10.816;2023-03-04T11:12:48;3.50;99.90
9383;DHT22;4731;49.708;10.816;2023-03-04T11:15:20;3.30;99.90
9383;DHT22;4731;49.708;10.816;2023-03-04T11:17:51;3.30;99.90
9383;DHT22;4731;49.708;10.816;2023-03-04T11:20:27;3.40;99.90
9383;DHT22;4731;49.708;10.816;2023-03-04T11:22:56;3.50;99.90
9383;DHT22;4731;49.708;10.816;2023-03-04T11:25:28;3.60;99.90
9383;DHT22;4731;49.708;10.816;2023-03-04T11:27:58;3.70;99.90
9383;DHT22;4731;49.708;10.816;2023-03-04T11:30:38;3.60;99.90
9383;DHT22;4731;49.708;10.816;2023-03-04T11:33:16;3.60;99.90
9383;DHT22;4731;49.708;10.816;2023-03-04T11:35:57;3.70;99.90
9383;DHT22;4731;49.708;10.816;2023-03-04T11:38:30;3.80;99.90
9383;DHT22;4731;49.708;10.816;2023-03-04T11:41:04;3.90;99.90
9383;DHT22;4731;49.708;10.816;2023-03-04T11:43:34;3.80;99.90
9383;DHT22;4731;49.708;10.816;2023-03-04T11:49:21;3.60;99.90
9383;DHT22;4731;49.708;10.816;2023-03-04T11:51:59;3.80;99.90
9383;DHT22;4731;49.708;10.816;2023-03-04T11:54:31;3.70;99.90
9383;DHT22;4731;49.708;10.816;2023-03-04T11:57:06;3.60;99.90
9383;DHT22;4731;49.708;10.816;2023-03-04T11:59:57;3.60;99.90
9383;DHT22;4731;49.708;10.816;2023-03-04T12:02:35;3.50;99.90
9383;DHT22;4731;49.708;10.816;2023-03-04T12:05:16;3.60;99.90
9383;DHT22;4731;49.708;10.816;2023-03-04T12:08:07;3.70;99.90
9383;DHT22;4731;49.708;10.816;2023-03-04T12:10:42;3.80;99.90
9383;DHT22;4731;49.708;10.816;2023-03-04T12:13:29;3.80;99.90
9383;DHT22;4731;49.708;10.816;2023-03-04T12:16:14;3.80;99.90
9383;DHT22;4731;49.708;10.816;2023-03-04T12:18:59;3.90;99.90
9383;DHT22;4731;49.708;10.816;2023-03-04T12:21:40;4.00;99.90
9383;DHT22;4731;49.708;10.816;2023-03-04T12:24:33;3.90;99.90
9383;DHT22;4731;49.708;10.816;2023-03-04T12:27:10;4.10;99.90
9383;DHT22;4731;49.708;10.816;2023-03-04T12:29:48;4.10;99.90
9383;DHT22;4731;49.708;10.816;2023-03-04T12:32:24;4.20;99.90
9383;DHT22;4731;49.708;10.816;2023-03-04T12:35:03;4.10;99.90
9383;DHT22;4731;49.708;10.816;2023-03-04T12:40:35;4.10;99.90
9383;DHT22;4731;49.708;10.816;2023-03-04T12:43:15;4.00;99.90
9383;DHT22;4731;49.708;10.816;2023-03-04T12:45:54;4.00;99.90
9383;DHT22;4731;49.708;10.816;2023-03-04T12:48:29;4.10;99.90
9383;DHT22;4731;49.708;10.816;2023-03-04T12:51:06;4.00;99.90
9383;DHT22;4731;49.708;10.816;2023-03-04T12:53:40;4.10;99.90
9383;DHT22;4731;49.708;10.816;2023-03-04T12:56:21;4.10;99.90
9383;DHT22;4731;49.708;10.816;2023-03-04T12:58:48;4.20;99.90
9383;DHT22;4731;49.708;10.816;2023-03-04T13:01:22;4.30;99.90
9383;DHT22;4731;49.708;10.816;2023-03-04T13:03:56;4.30;99.90
9383;DHT22;4731;49.708;10.816;2023-03-04T13:06:37;4.30;99.90
9383;DHT22;4731;49.708;10.816;2023-03-04T13:09:11;4.40;99.90
9383;DHT22;4731;49.708;10.816;2023-03-04T13:11:53;4.40;99.90
9383;DHT22;4731;49.708;10.816;2023-03-04T13:14:26;4.50;99.90
9383;DHT22;4731;49.708;10.816;2023-03-04T13:16:57;4.40;99.90
9383;DHT22;4731;49.708;10.816;2023-03-04T13:19:50;4.50;99.90
9383;DHT22;4731;49.708;10.816;2023-03-04T13:22:33;4.40;99.90
9383;DHT22;4731;49.708;10.816;2023-03-04T13:27:46;4.40;99.90
9383;DHT22;4731;49.708;10.816;2023-03-04T13:30:42;4.30;99.90
9383;DHT22;4731;49.708;10.816;2023-03-04T13:33:55;4.30;99.90
9383;DHT22;4731;49.708;10.816;2023-03-04T13:36:34;4.20;99.90
9383;DHT22;4731;49.708;10.816;2023-03-04T13:39:26;4.70;99.90
9383;DHT22;4731;49.708;10.816;2023-03-04T13:41:54;4.00;99.90
9383;DHT22;4731;49.708;10.816;2023-03-04T13:47:44;4.00;99.90
9383;DHT22;4731;49.708;10.816;2023-03-04T13:50:35;4.10;99.90
9383;DHT22;4731;49.708;10.816;2023-03-04T13:56:17;4.30;99.90
9383;DHT22;4731;49.708;10.816;2023-03-04T13:58:48;4.30;99.90
9383;DHT22;4731;49.708;10.816;2023-03-04T14:01:23;4.30;99.90
9383;DHT22;4731;49.708;10.816;2023-03-04T14:03:50;4.30;99.90
9383;DHT22;4731;49.708;10.816;2023-03-04T14:06:20;4.30;99.90
9383;DHT22;4731;49.708;10.816;2023-03-04T14:08:48;4.20;99.90
9383;DHT22;4731;49.708;10.816;2023-03-04T14:11:21;4.20;99.90
9383;DHT22;4731;49.708;10.816;2023-03-04T14:13:49;4.30;99.90
9383;DHT22;4731;49.708;10.816;2023-03-04T14:16:19;5.80;99.90
9383;DHT22;4731;49.708;10.816;2023-03-04T14:18:56;4.40;99.90
9383;DHT22;4731;49.708;10.816;2023-03-04T14:21:24;4.40;99.90
9383;DHT22;4731;49.708;10.816;2023-03-04T14:24:00;4.40;99.90
9383;DHT22;4731;49.708;10.816;2023-03-04T14:26:26;4.20;99.90
9383;DHT22;4731;49.708;10.816;2023-03-04T14:28:56;4.30;99.90
9383;DHT22;4731;49.708;10.816;2023-03-04T14:31:26;4.20;99.90
9383;DHT22;4731;49.708;10.816;2023-03-04T14:33:55;4.30;99.90
9383;DHT22;4731;49.708;10.816;2023-03-04T14:36:29;4.30;99.90
9383;DHT22;4731;49.708;10.816;2023-03-04T14:38:59;4.20;99.90
9383;DHT22;4731;49.708;10.816;2023-03-04T14:41:30;4.20;99.90
9383;DHT22;4731;49.708;10.816;2023-03-04T14:44:03;4.10;99.90
9383;DHT22;4731;49.708;10.816;2023-03-04T14:46:36;4.20;99.90
9383;DHT22;4731;49.708;10.816;2023-03-04T14:49:05;4.10;99.90
9383;DHT22;4731;49.708;10.816;2023-03-04T14:51:38;3.90;99.90
9383;DHT22;4731;49.708;10.816;2023-03-04T14:54:06;3.90;99.90
9383;DHT22;4731;49.708;10.816;2023-03-04T14:56:34;4.00;99.90
9383;DHT22;4731;49.708;10.816;2023-03-04T14:59:01;4.10;99.90
9383;DHT22;4731;49.708;10.816;2023-03-04T15:01:31;4.10;99.90
9383;DHT22;4731;49.708;10.816;2023-03-04T15:04:00;4.00;99.90
9383;DHT22;4731;49.708;10.816;2023-03-04T15:06:29;3.90;99.90
9383;DHT22;4731;49.708;10.816;2023-03-04T15:08:59;3.90;99.90
9383;DHT22;4731;49.708;10.816;2023-03-04T15:11:29;3.90;99.90
9383;DHT22;4731;49.708;10.816;2023-03-04T15:13:59;4.00;99.90
9383;DHT22;4731;49.708;10.816;2023-03-04T15:16:27;4.00;99.90
9383;DHT22;4731;49.708;10.816;2023-03-04T15:18:58;4.00;99.90
9383;DHT22;4731;49.708;10.816;2023-03-04T15:21:35;4.00;99.90
9383;DHT22;4731;49.708;10.816;2023-03-04T15:24:05;3.90;99.90
9383;DHT22;4731;49.708;10.816;2023-03-04T15:26:42;3.80;99.90
9383;DHT22;4731;49.708;10.816;2023-03-04T15:29:13;4.00;99.90
9383;DHT22;4731;49.708;10.816;2023-03-04T15:31:41;3.90;99.90
9383;DHT22;4731;49.708;10.816;2023-03-04T15:34:11;4.00;99.90
9383;DHT22;4731;49.708;10.816;2023-03-04T15:36:39;5.00;99.90
9383;DHT22;4731;49.708;10.816;2023-03-04T15:39:11;4.00;99.90
9383;DHT22;4731;49.708;10.816;2023-03-04T15:41:39;4.10;99.90
9383;DHT22;4731;49.708;10.816;2023-03-04T15:44:06;4.10;99.90
9383;DHT22;4731;49.708;10.816;2023-03-04T15:46:33;4.10;99.90
9383;DHT22;4731;49.708;10.816;2023-03-04T15:49:00;4.10;99.90
9383;DHT22;4731;49.708;10.816;2023-03-04T15:51:29;4.10;99.90
9383;DHT22;4731;49.708;10.816;2023-03-04T15:53:58;4.10;99.90
9383;DHT22;4731;49.708;10.816;2023-03-04T15:56:29;3.90;99.90
9383;DHT22;4731;49.708;10.816;2023-03-04T15:58:58;3.90;99.90
9383;DHT22;4731;49.708;10.816;2023-03-04T16:01:25;3.80;99.90
9383;DHT22;4731;49.708;10.816;2023-03-04T16:03:52;3.70;99.90
9383;DHT22;4731;49.708;10.816;2023-03-04T16:06:19;3.80;99.90
9383;DHT22;4731;49.708;10.816;2023-03-04T16:08:48;3.90;99.90
9383;DHT22;4731;49.708;10.816;2023-03-04T16:11:18;3.90;99.90
9383;DHT22;4731;49.708;10.816;2023-03-04T16:13:48;4.00;99.90
9383;DHT22;4731;49.708;10.816;2023-03-04T16:16:16;4.00;99.90
9383;DHT22;4731;49.708;10.816;2023-03-04T16:18:43;3.80;99.90
9383;DHT22;4731;49.708;10.816;2023-03-04T16:21:13;5.60;99.90
9383;DHT22;4731;49.708;10.816;2023-03-04T16:23:41;3.80;99.90
9383;DHT22;4731;49.708;10.816;2023-03-04T16:26:34;3.70;99.90